Fredricktwn, Ohio
Current Conditions -  °F | °C
As of 8:55 AM on Friday 31 Oct 2014 (Local Time) from K4I3 Reporting Station
Overcast Overcast  
Wind Chill: 38°   Ceiling: 4900
Heat Index: 41°   Visibility: 10mi
Dew Point: 37°   Wind: 5mph
Humidity: 87%   Direction: 200°SSW
Pressure: 29.94"   Gusts: NA
Location:  40.4945°N, 82.5786°W
Report Text: K4I3 311255Z AUTO 20004KT 10SM OVC049 05/03 A2994 RMK AO2
Loading
Personal Weather Stations






























Interactive Weather Map
Tropical Storm Tracking
New forecast layout! Learn more

10-Day Weather Forecast

Advertisements
Track Severe Weather on mobile